createdAt,value
2023-05-21T00:02:20.187Z,72.65
2023-05-21T00:04:47.510Z,72.87
2023-05-21T00:07:15.362Z,73.21
2023-05-21T00:09:42.035Z,73.22
2023-05-21T00:12:09.132Z,73.37
2023-05-21T00:14:36.019Z,73.58
2023-05-21T00:17:02.594Z,73.65
2023-05-21T00:19:29.180Z,73.56
2023-05-21T00:21:55.983Z,74.08
2023-05-21T00:24:22.491Z,74.26
2023-05-21T00:26:48.954Z,74.36
2023-05-21T00:29:15.664Z,74.55
2023-05-21T00:31:42.227Z,74.53
2023-05-21T00:34:09.113Z,74.42
2023-05-21T00:36:35.634Z,74.43
2023-05-21T00:39:02.414Z,74.43
2023-05-21T00:41:30.175Z,74.64
2023-05-21T00:43:57.182Z,74.49
2023-05-21T00:46:24.140Z,74.61
2023-05-21T00:48:51.237Z,74.73
2023-05-21T00:51:18.700Z,74.74
2023-05-21T00:53:46.654Z,74.99
2023-05-21T00:56:13.712Z,75.13
2023-05-21T00:58:41.393Z,75.15
2023-05-21T01:01:13.539Z,75.49
2023-05-21T01:03:41.067Z,75.36
2023-05-21T01:06:09.154Z,75.30
2023-05-21T01:08:38.791Z,75.56
2023-05-21T01:11:07.478Z,75.37
2023-05-21T01:13:37.552Z,75.72
2023-05-21T01:16:06.622Z,75.65
2023-05-21T01:18:40.146Z,75.71
2023-05-21T01:21:07.540Z,75.95
2023-05-21T01:23:34.457Z,75.85
2023-05-21T01:26:01.007Z,75.87
2023-05-21T01:28:27.731Z,75.85
2023-05-21T01:30:58.613Z,76.04
2023-05-21T01:33:33.460Z,75.90
2023-05-21T01:36:06.686Z,75.99
2023-05-21T01:38:43.448Z,75.95
2023-05-21T01:41:15.612Z,76.14
2023-05-21T01:43:45.621Z,76.17
2023-05-21T01:46:17.199Z,75.96
2023-05-21T01:48:44.217Z,75.86
2023-05-21T01:51:11.552Z,75.81
2023-05-21T01:53:40.634Z,76.20
2023-05-21T01:56:07.753Z,76.06
2023-05-21T01:58:34.441Z,76.15
2023-05-21T02:01:00.949Z,76.41
2023-05-21T02:03:31.015Z,76.34
2023-05-21T02:05:57.802Z,76.56
2023-05-21T02:08:25.540Z,76.55
2023-05-21T02:10:52.190Z,76.50
2023-05-21T02:13:24.938Z,76.71
2023-05-21T02:15:54.776Z,76.63
2023-05-21T02:18:22.213Z,76.61
2023-05-21T02:20:48.843Z,76.65
2023-05-21T02:23:15.681Z,76.89
2023-05-21T02:25:42.547Z,76.65
2023-05-21T02:28:09.078Z,76.91
2023-05-21T02:30:35.991Z,76.65
2023-05-21T02:33:02.955Z,76.77
2023-05-21T02:35:29.908Z,76.94
2023-05-21T02:37:59.202Z,76.91
2023-05-21T02:40:25.856Z,76.93
2023-05-21T02:42:52.379Z,76.96
2023-05-21T02:45:20.946Z,77.33
2023-05-21T02:47:47.658Z,77.29
2023-05-21T02:50:17.459Z,77.73
2023-05-21T02:52:49.515Z,77.79
2023-05-21T02:55:16.200Z,77.78
2023-05-21T02:57:42.794Z,77.71
2023-05-21T03:00:10.593Z,77.86
2023-05-21T03:02:38.806Z,77.60
2023-05-21T03:05:06.074Z,77.87
2023-05-21T03:07:33.370Z,77.91
2023-05-21T03:09:59.974Z,77.83
2023-05-21T03:12:26.462Z,78.25
2023-05-21T03:14:53.086Z,78.02
2023-05-21T03:17:20.630Z,78.26
2023-05-21T03:19:49.030Z,78.41
2023-05-21T03:22:15.980Z,78.41
2023-05-21T03:24:42.474Z,78.30
2023-05-21T03:27:09.200Z,78.46
2023-05-21T03:29:36.219Z,78.32
2023-05-21T03:32:03.649Z,78.38
2023-05-21T03:34:34.504Z,78.70
2023-05-21T03:37:01.927Z,78.78
2023-05-21T03:39:29.211Z,78.75
2023-05-21T03:41:56.753Z,79.40
2023-05-21T03:44:32.791Z,79.21
2023-05-21T03:47:15.794Z,79.39
2023-05-21T03:49:42.720Z,79.52
2023-05-21T03:52:09.309Z,79.54
2023-05-21T03:54:35.965Z,79.66
2023-05-21T03:57:06.181Z,79.43
2023-05-21T03:59:33.204Z,79.74
2023-05-21T04:02:00.312Z,79.44
2023-05-21T04:04:29.292Z,79.59
2023-05-21T04:06:56.006Z,79.86
2023-05-21T04:09:23.033Z,79.48
2023-05-21T04:11:51.755Z,79.79
2023-05-21T04:14:18.298Z,79.63
2023-05-21T04:16:44.884Z,79.60
2023-05-21T04:19:11.480Z,79.24
2023-05-21T04:21:37.960Z,79.24
2023-05-21T04:24:05.188Z,78.90
2023-05-21T04:26:50.128Z,79.17
2023-05-21T04:29:21.303Z,78.73
2023-05-21T04:31:49.713Z,78.54
2023-05-21T04:34:19.903Z,78.18
2023-05-21T04:36:46.544Z,78.16
2023-05-21T04:39:14.735Z,78.09
2023-05-21T04:41:41.251Z,77.66
2023-05-21T04:44:08.441Z,77.72
2023-05-21T04:46:35.226Z,77.39
2023-05-21T04:49:03.064Z,77.28
2023-05-21T04:51:31.351Z,77.12
2023-05-21T04:53:58.201Z,77.40
2023-05-21T04:56:27.371Z,77.37
2023-05-21T04:58:54.328Z,77.09
2023-05-21T05:01:23.590Z,77.04
2023-05-21T05:03:50.555Z,76.74
2023-05-21T05:06:17.500Z,76.87
2023-05-21T05:08:46.233Z,76.69
2023-05-21T05:11:14.286Z,76.71
2023-05-21T05:13:43.681Z,76.50
2023-05-21T05:16:10.253Z,76.33
2023-05-21T05:18:37.172Z,76.19
2023-05-21T05:21:03.839Z,76.26
2023-05-21T05:23:30.603Z,76.16
2023-05-21T05:25:57.265Z,76.04
2023-05-21T05:28:23.778Z,75.58
2023-05-21T05:30:50.310Z,75.29
2023-05-21T05:33:22.269Z,75.26
2023-05-21T05:35:49.110Z,75.10
2023-05-21T05:38:15.639Z,74.90
2023-05-21T05:40:42.100Z,74.68
2023-05-21T05:43:08.737Z,74.71
2023-05-21T05:45:35.434Z,74.65
2023-05-21T05:48:06.463Z,74.62
2023-05-21T05:50:32.999Z,74.60
2023-05-21T05:52:59.521Z,74.42
2023-05-21T05:55:26.823Z,74.04
2023-05-21T05:57:54.193Z,73.95
2023-05-21T06:00:21.338Z,74.01
2023-05-21T06:02:49.907Z,73.63
2023-05-21T06:05:16.708Z,73.51
2023-05-21T06:07:43.307Z,73.61
2023-05-21T06:10:10.217Z,73.21
2023-05-21T06:12:36.874Z,73.41
2023-05-21T06:15:04.037Z,73.23
2023-05-21T06:17:31.692Z,72.89
2023-05-21T06:19:58.287Z,72.52
2023-05-21T06:22:26.716Z,72.61
2023-05-21T06:24:53.334Z,72.12
2023-05-21T06:27:20.586Z,72.15
2023-05-21T06:29:48.296Z,71.67
2023-05-21T06:32:14.845Z,71.55
2023-05-21T06:34:41.876Z,71.19
2023-05-21T06:37:08.383Z,70.64
2023-05-21T06:39:34.866Z,70.49
2023-05-21T06:42:01.776Z,69.88
2023-05-21T06:44:51.664Z,69.81
2023-05-21T06:47:37.387Z,69.55
2023-05-21T06:50:04.243Z,69.58
2023-05-21T06:52:31.802Z,69.22
2023-05-21T06:54:59.679Z,69.32
2023-05-21T06:57:29.280Z,68.98
2023-05-21T06:59:57.182Z,68.87
2023-05-21T07:02:23.787Z,68.68
2023-05-21T07:04:50.394Z,68.45
2023-05-21T07:07:16.918Z,68.19
2023-05-21T07:09:43.407Z,68.13
2023-05-21T07:12:10.157Z,68.16
2023-05-21T07:14:37.601Z,68.21
2023-05-21T07:17:04.369Z,67.60
2023-05-21T07:19:31.444Z,67.60
2023-05-21T07:21:58.662Z,67.42
2023-05-21T07:24:27.444Z,67.19
2023-05-21T07:26:54.319Z,67.02
2023-05-21T07:29:21.513Z,66.80
2023-05-21T07:31:48.098Z,66.79
2023-05-21T07:34:16.041Z,66.63
2023-05-21T07:36:42.582Z,66.46
2023-05-21T07:39:09.094Z,66.36
2023-05-21T07:41:36.977Z,66.05
2023-05-21T07:44:07.190Z,66.20
2023-05-21T07:46:37.690Z,65.97
2023-05-21T07:49:04.217Z,65.67
2023-05-21T07:51:31.241Z,65.33
2023-05-21T07:53:57.747Z,65.16
2023-05-21T07:56:32.314Z,65.06
2023-05-21T07:58:59.614Z,64.31
2023-05-21T08:01:29.553Z,63.93
2023-05-21T08:03:56.527Z,63.58
2023-05-21T08:06:24.355Z,62.67
2023-05-21T08:08:50.984Z,62.33
2023-05-21T08:11:17.734Z,62.30
2023-05-21T08:13:45.507Z,62.14
2023-05-21T08:16:12.900Z,61.67
2023-05-21T08:18:39.568Z,61.29
2023-05-21T08:21:06.408Z,61.05
2023-05-21T08:23:32.997Z,60.60
2023-05-21T08:26:00.107Z,60.59
2023-05-21T08:28:27.706Z,60.55
2023-05-21T08:30:54.941Z,60.00
2023-05-21T08:33:23.385Z,59.37
2023-05-21T08:35:49.931Z,59.52
2023-05-21T08:38:30.534Z,59.17
2023-05-21T08:41:07.645Z,59.42
2023-05-21T08:43:37.123Z,59.53
2023-05-21T08:46:04.692Z,59.03
2023-05-21T08:48:34.857Z,58.72
2023-05-21T08:51:01.494Z,58.61
2023-05-21T08:53:34.878Z,58.39
2023-05-21T08:56:03.792Z,58.25
2023-05-21T08:58:46.251Z,57.83
2023-05-21T09:01:19.105Z,57.62
2023-05-21T09:03:50.377Z,57.30
2023-05-21T09:06:17.230Z,56.84
2023-05-21T09:08:47.442Z,56.98
2023-05-21T09:11:32.375Z,57.75
2023-05-21T09:14:00.785Z,57.65
2023-05-21T09:16:49.780Z,57.54
2023-05-21T09:19:24.134Z,57.69
2023-05-21T09:21:53.765Z,57.25
2023-05-21T09:24:24.354Z,57.08
2023-05-21T09:26:52.463Z,56.76
2023-05-21T09:29:19.562Z,55.67
2023-05-21T09:31:46.624Z,55.85
2023-05-21T09:34:14.244Z,56.21
2023-05-21T09:36:43.814Z,55.54
2023-05-21T09:39:16.166Z,55.58
2023-05-21T09:41:43.113Z,55.21
2023-05-21T09:44:10.701Z,55.22
2023-05-21T09:46:41.437Z,55.55
2023-05-21T09:49:22.942Z,55.79
2023-05-21T09:51:49.809Z,56.01
2023-05-21T09:54:16.356Z,56.49
2023-05-21T09:56:42.907Z,56.26
2023-05-21T09:59:09.756Z,55.59
2023-05-21T10:01:37.474Z,55.16
2023-05-21T10:04:08.776Z,55.44
2023-05-21T10:06:42.009Z,55.39
2023-05-21T10:09:11.005Z,55.52
2023-05-21T10:11:39.559Z,55.88
2023-05-21T10:14:07.778Z,55.51
2023-05-21T10:16:36.203Z,55.52
2023-05-21T10:19:04.362Z,55.15
2023-05-21T10:21:33.307Z,54.69
2023-05-21T10:24:02.071Z,54.99
2023-05-21T10:26:28.798Z,55.10
2023-05-21T10:28:56.463Z,55.13
2023-05-21T10:31:23.425Z,54.90
2023-05-21T10:33:51.082Z,55.41
2023-05-21T10:36:20.655Z,55.89
2023-05-21T10:38:47.549Z,55.61
2023-05-21T10:41:17.249Z,55.27
2023-05-21T10:44:06.785Z,55.22
2023-05-21T10:46:48.538Z,55.22
2023-05-21T10:49:49.112Z,55.44
2023-05-21T10:52:33.801Z,54.94
2023-05-21T10:55:23.536Z,54.51
2023-05-21T10:58:10.956Z,54.26
2023-05-21T11:00:38.461Z,53.47
2023-05-21T11:03:06.179Z,53.54
2023-05-21T11:05:40.468Z,51.95
2023-05-21T11:08:21.370Z,51.04
2023-05-21T11:10:52.776Z,50.74
2023-05-21T11:13:22.411Z,50.62
2023-05-21T11:15:57.723Z,50.59
2023-05-21T11:18:47.097Z,50.74
2023-05-21T11:21:15.390Z,51.03
2023-05-21T11:23:51.195Z,51.11
2023-05-21T11:26:19.397Z,50.76
2023-05-21T11:28:46.098Z,49.88
2023-05-21T11:31:29.749Z,49.29
2023-05-21T11:34:15.670Z,46.12
2023-05-21T11:36:44.920Z,46.13
2023-05-21T11:39:17.802Z,44.80
2023-05-21T11:41:53.595Z,44.35
2023-05-21T11:44:48.502Z,43.17
2023-05-21T11:47:19.152Z,42.53
2023-05-21T11:49:46.581Z,42.50
2023-05-21T11:52:14.046Z,41.58
2023-05-21T11:54:46.081Z,41.45
2023-05-21T11:57:16.600Z,40.71
2023-05-21T11:59:43.240Z,40.38
2023-05-21T12:02:09.741Z,39.76
2023-05-21T12:04:36.776Z,38.88
2023-05-21T12:07:13.336Z,38.29
2023-05-21T12:09:40.790Z,37.69
2023-05-21T12:12:11.529Z,38.20
2023-05-21T12:14:37.983Z,38.51
2023-05-21T12:17:07.015Z,39.13
2023-05-21T12:19:34.738Z,37.94
2023-05-21T12:22:05.425Z,37.72
2023-05-21T12:24:32.230Z,38.00
2023-05-21T12:27:01.023Z,37.09
2023-05-21T12:29:29.728Z,37.09
2023-05-21T12:31:59.765Z,36.75
2023-05-21T12:34:41.566Z,36.62
2023-05-21T12:37:08.274Z,36.22
2023-05-21T12:39:39.351Z,35.40
2023-05-21T12:42:06.997Z,35.43
2023-05-21T12:44:34.861Z,34.83
2023-05-21T12:47:03.502Z,34.72
2023-05-21T12:49:37.524Z,34.54
2023-05-21T12:52:14.272Z,34.61
2023-05-21T12:54:43.779Z,34.39
2023-05-21T12:57:28.268Z,33.50
2023-05-21T12:59:59.643Z,33.24
2023-05-21T13:02:28.947Z,32.90
2023-05-21T13:05:00.800Z,33.26
2023-05-21T13:07:29.293Z,33.13
2023-05-21T13:09:56.493Z,33.26
2023-05-21T13:12:24.515Z,33.84
2023-05-21T13:14:51.856Z,34.40
2023-05-21T13:17:19.430Z,34.43
2023-05-21T13:20:20.136Z,34.59
2023-05-21T13:22:47.888Z,34.37
2023-05-21T13:25:16.334Z,34.59
2023-05-21T13:27:43.357Z,34.25
2023-05-21T13:30:11.702Z,32.88
2023-05-21T13:32:39.512Z,32.19
2023-05-21T13:35:07.230Z,30.91
2023-05-21T13:37:37.884Z,31.38
2023-05-21T13:40:04.766Z,31.37
2023-05-21T13:42:31.312Z,31.58
2023-05-21T13:44:58.244Z,31.83
2023-05-21T13:47:24.801Z,31.96
2023-05-21T13:49:51.552Z,32.26
2023-05-21T13:52:18.292Z,32.28
2023-05-21T13:54:44.757Z,32.19
2023-05-21T13:57:11.226Z,32.31
2023-05-21T13:59:37.713Z,31.72
2023-05-21T14:02:04.202Z,31.78
2023-05-21T14:04:30.675Z,31.91
2023-05-21T14:06:57.326Z,31.72
2023-05-21T14:09:27.042Z,30.59
2023-05-21T14:11:55.029Z,31.02
2023-05-21T14:14:22.015Z,30.61
2023-05-21T14:16:49.404Z,30.80
2023-05-21T14:19:16.702Z,30.37
2023-05-21T14:21:43.586Z,31.08
2023-05-21T14:24:10.470Z,31.02
2023-05-21T14:26:39.970Z,31.77
2023-05-21T14:29:06.828Z,30.58
2023-05-21T14:31:33.339Z,29.40
2023-05-21T14:33:59.858Z,31.29
2023-05-21T14:36:26.322Z,31.51
2023-05-21T14:38:52.837Z,31.46
2023-05-21T14:41:19.370Z,32.23
2023-05-21T14:43:45.838Z,31.38
2023-05-21T14:46:12.325Z,31.38
2023-05-21T14:48:38.881Z,32.29
2023-05-21T14:51:05.385Z,33.54
2023-05-21T14:53:32.279Z,33.90
2023-05-21T14:55:59.056Z,33.57
2023-05-21T14:58:25.534Z,32.96
2023-05-21T15:00:52.009Z,32.78
2023-05-21T15:03:18.547Z,32.84
2023-05-21T15:05:45.055Z,32.85
2023-05-21T15:08:11.520Z,32.86
2023-05-21T15:10:38.134Z,32.19
2023-05-21T15:13:04.599Z,31.38
2023-05-21T15:15:31.058Z,30.78
2023-05-21T15:17:58.059Z,31.73
2023-05-21T15:20:24.694Z,31.60
2023-05-21T15:22:53.495Z,31.69
2023-05-21T15:25:23.534Z,30.59
2023-05-21T15:27:50.713Z,30.76
2023-05-21T15:30:17.471Z,30.65
2023-05-21T15:32:44.076Z,30.32
2023-05-21T15:35:10.694Z,31.16
2023-05-21T15:37:37.319Z,30.58
2023-05-21T15:40:04.502Z,30.87
2023-05-21T15:42:31.891Z,30.47
2023-05-21T15:44:58.853Z,30.44
2023-05-21T15:47:25.554Z,29.96
2023-05-21T15:49:52.064Z,30.91
2023-05-21T15:52:19.965Z,30.36
2023-05-21T15:54:47.053Z,30.46
2023-05-21T15:57:13.569Z,30.02
2023-05-21T15:59:40.112Z,30.32
2023-05-21T16:02:07.695Z,30.88
2023-05-21T16:04:34.481Z,30.61
2023-05-21T16:07:00.932Z,31.55
2023-05-21T16:09:27.416Z,31.10
2023-05-21T16:11:53.901Z,30.84
2023-05-21T16:14:20.417Z,30.96
2023-05-21T16:16:46.929Z,30.71
2023-05-21T16:19:13.485Z,30.59
2023-05-21T16:21:39.992Z,30.10
2023-05-21T16:24:06.741Z,30.19
2023-05-21T16:26:33.235Z,29.88
2023-05-21T16:29:02.236Z,29.45
2023-05-21T16:31:29.045Z,29.39
2023-05-21T16:33:55.846Z,29.21
2023-05-21T16:36:22.387Z,28.96
2023-05-21T16:38:48.945Z,29.33
2023-05-21T16:41:15.605Z,29.34
2023-05-21T16:43:42.173Z,30.00
2023-05-21T16:46:08.677Z,30.53
2023-05-21T16:48:37.324Z,31.28
2023-05-21T16:51:04.597Z,31.99
2023-05-21T16:53:31.369Z,32.37
2023-05-21T16:55:57.921Z,32.56
2023-05-21T16:58:24.540Z,33.54
2023-05-21T17:00:51.082Z,32.85
2023-05-21T17:03:17.940Z,33.21
2023-05-21T17:05:44.642Z,33.29
2023-05-21T17:08:11.204Z,33.07
2023-05-21T17:10:37.700Z,33.21
2023-05-21T17:13:13.961Z,33.04
2023-05-21T17:15:47.706Z,33.11
2023-05-21T17:18:14.315Z,32.97
2023-05-21T17:20:41.015Z,33.39
2023-05-21T17:23:07.516Z,33.50
2023-05-21T17:25:34.682Z,33.82
2023-05-21T17:28:01.489Z,34.03
2023-05-21T17:30:27.948Z,33.87
2023-05-21T17:32:54.636Z,33.51
2023-05-21T17:35:21.195Z,33.39
2023-05-21T17:37:48.080Z,33.47
2023-05-21T17:40:14.597Z,33.65
2023-05-21T17:42:41.382Z,33.46
2023-05-21T17:45:09.269Z,32.94
2023-05-21T17:47:36.053Z,32.27
2023-05-21T17:50:02.757Z,31.56
2023-05-21T17:52:29.267Z,31.48
2023-05-21T17:54:55.811Z,31.96
2023-05-21T17:57:22.425Z,33.12
2023-05-21T17:59:48.904Z,33.61
2023-05-21T18:02:15.352Z,34.51
2023-05-21T18:04:41.822Z,35.47
2023-05-21T18:07:08.259Z,35.81
2023-05-21T18:09:34.768Z,36.31
2023-05-21T18:12:02.944Z,37.67
2023-05-21T18:14:29.402Z,39.01
2023-05-21T18:16:56.015Z,39.82
2023-05-21T18:19:22.626Z,40.43
2023-05-21T18:21:49.471Z,41.21
2023-05-21T18:24:15.952Z,42.33
2023-05-21T18:26:43.397Z,42.09
2023-05-21T18:29:11.234Z,42.42
2023-05-21T18:31:37.832Z,43.08
2023-05-21T18:34:04.432Z,43.39
2023-05-21T18:36:38.354Z,43.52
2023-05-21T18:39:08.947Z,43.72
2023-05-21T18:41:36.067Z,43.33
2023-05-21T18:44:02.720Z,43.18
2023-05-21T18:46:29.588Z,42.89
2023-05-21T18:48:56.378Z,43.15
2023-05-21T18:51:22.922Z,42.90
2023-05-21T18:53:49.527Z,43.20
2023-05-21T18:56:17.014Z,43.56
2023-05-21T18:58:43.484Z,43.98
2023-05-21T19:01:10.325Z,44.27
2023-05-21T19:03:38.017Z,44.45
2023-05-21T19:06:04.702Z,44.92
2023-05-21T19:08:31.169Z,45.28
2023-05-21T19:10:57.760Z,45.59
2023-05-21T19:13:24.349Z,45.83
2023-05-21T19:15:50.841Z,46.08
2023-05-21T19:18:17.443Z,46.39
2023-05-21T19:20:43.924Z,46.54
2023-05-21T19:23:10.665Z,46.81
2023-05-21T19:25:37.518Z,46.85
2023-05-21T19:28:04.048Z,47.33
2023-05-21T19:30:30.632Z,47.65
2023-05-21T19:32:57.484Z,47.96
2023-05-21T19:35:23.959Z,48.14
2023-05-21T19:37:50.537Z,48.51
2023-05-21T19:40:17.651Z,48.62
2023-05-21T19:42:44.796Z,48.88
2023-05-21T19:45:11.777Z,48.94
2023-05-21T19:47:40.980Z,49.28
2023-05-21T19:50:08.172Z,49.76
2023-05-21T19:52:34.659Z,50.06
2023-05-21T19:55:04.800Z,50.35
2023-05-21T19:57:32.573Z,50.51
2023-05-21T19:59:59.478Z,50.68
2023-05-21T20:02:28.550Z,50.94
2023-05-21T20:04:56.926Z,51.28
2023-05-21T20:07:23.790Z,51.68
2023-05-21T20:09:50.572Z,52.26
2023-05-21T20:12:17.050Z,52.54
2023-05-21T20:14:46.748Z,53.03
2023-05-21T20:17:14.400Z,53.39
2023-05-21T20:19:41.163Z,53.71
2023-05-21T20:22:07.694Z,53.87
2023-05-21T20:24:34.234Z,54.32
2023-05-21T20:27:01.600Z,54.64
2023-05-21T20:29:28.851Z,55.11
2023-05-21T20:31:55.493Z,55.00
2023-05-21T20:34:22.187Z,55.01
2023-05-21T20:36:48.719Z,55.29
2023-05-21T20:39:15.481Z,55.47
2023-05-21T20:41:44.834Z,55.39
2023-05-21T20:44:11.970Z,55.92
2023-05-21T20:46:38.989Z,55.83
2023-05-21T20:49:06.154Z,56.19
2023-05-21T20:51:33.081Z,56.31
2023-05-21T20:53:59.653Z,56.53
2023-05-21T20:56:40.715Z,56.25
2023-05-21T20:59:09.886Z,56.23
2023-05-21T21:01:38.165Z,56.66
2023-05-21T21:04:05.057Z,56.63
2023-05-21T21:06:31.930Z,56.97
2023-05-21T21:08:58.620Z,56.79
2023-05-21T21:11:26.647Z,56.97
2023-05-21T21:13:53.163Z,57.30
2023-05-21T21:16:19.798Z,57.26
2023-05-21T21:18:47.096Z,57.45
2023-05-21T21:21:13.860Z,57.31
2023-05-21T21:23:40.505Z,57.80
2023-05-21T21:26:07.177Z,57.46
2023-05-21T21:28:34.022Z,57.18
2023-05-21T21:31:00.729Z,57.36
2023-05-21T21:33:28.399Z,57.37
2023-05-21T21:35:55.008Z,57.23
2023-05-21T21:38:21.679Z,57.49
2023-05-21T21:40:48.268Z,57.27
2023-05-21T21:43:14.794Z,57.30
2023-05-21T21:45:41.354Z,57.75
2023-05-21T21:48:07.936Z,57.56
2023-05-21T21:50:34.601Z,57.57
2023-05-21T21:53:01.202Z,57.46
2023-05-21T21:55:29.514Z,57.60
2023-05-21T21:57:55.999Z,57.74
2023-05-21T22:00:26.381Z,57.67
2023-05-21T22:02:52.954Z,58.28
2023-05-21T22:05:19.468Z,58.27
2023-05-21T22:07:46.530Z,58.08
2023-05-21T22:10:17.217Z,58.25
2023-05-21T22:12:45.931Z,58.57
2023-05-21T22:15:19.236Z,58.77
2023-05-21T22:17:47.310Z,59.17
2023-05-21T22:20:13.976Z,59.35
2023-05-21T22:22:40.594Z,59.56
2023-05-21T22:25:07.351Z,59.87
2023-05-21T22:27:34.016Z,60.17
2023-05-21T22:30:00.887Z,60.33
2023-05-21T22:32:27.406Z,60.69
2023-05-21T22:34:53.908Z,60.51
2023-05-21T22:37:20.421Z,60.73
2023-05-21T22:39:46.884Z,60.78
2023-05-21T22:42:13.434Z,60.72
2023-05-21T22:44:40.108Z,60.76
2023-05-21T22:47:09.269Z,60.98
2023-05-21T22:49:38.062Z,60.76
2023-05-21T22:52:06.363Z,61.10
2023-05-21T22:54:32.822Z,61.25
2023-05-21T22:57:01.205Z,61.22
2023-05-21T22:59:29.224Z,61.32
2023-05-21T23:01:55.875Z,61.34
2023-05-21T23:04:35.732Z,61.37
2023-05-21T23:07:09.710Z,61.47
2023-05-21T23:09:36.529Z,60.97
2023-05-21T23:12:03.739Z,60.90
2023-05-21T23:14:30.460Z,61.06
2023-05-21T23:17:01.704Z,61.12
2023-05-21T23:19:29.553Z,61.24
2023-05-21T23:21:56.373Z,61.43
2023-05-21T23:24:23.369Z,61.39
2023-05-21T23:26:50.010Z,61.63
2023-05-21T23:29:16.628Z,61.94
2023-05-21T23:31:43.645Z,61.77
2023-05-21T23:34:10.294Z,61.92
2023-05-21T23:36:36.789Z,62.34
2023-05-21T23:39:03.509Z,62.25
2023-05-21T23:41:30.168Z,62.76
2023-05-21T23:43:57.607Z,62.91
2023-05-21T23:46:24.111Z,63.01
2023-05-21T23:48:50.617Z,63.26
2023-05-21T23:51:19.147Z,63.25
2023-05-21T23:53:45.784Z,63.60
2023-05-21T23:56:12.399Z,63.91
2023-05-21T23:58:38.865Z,64.03
